Time;durP1;ratioP1;P1;durP2;ratioP2;P2;SDS_P1;SDS_P2;PMS_P1;PMS_P2;Temp;Humidity;BMP_temperature;BMP_pressure;BME280_temperature;BME280_humidity;BME280_pressure;Samples;Min_cycle;Max_cycle;Signal;HPM_P1;HPM_P2
2023/08/05 00:00:15;;;;;;;44.17;29.02;;;26.90;99.90;;;;;;5090128;28;20123;-67
2023/08/05 00:02:41;;;;;;;50.05;26.95;;;26.90;99.90;;;;;;5090431;28;20025;-66
2023/08/05 00:05:08;;;;;;;37.90;24.48;;;26.90;99.90;;;;;;5090025;28;20036;-66
2023/08/05 00:07:35;;;;;;;41.50;24.08;;;26.80;99.90;;;;;;5090333;28;20037;-66
2023/08/05 00:10:02;;;;;;;40.22;24.60;;;26.80;99.90;;;;;;5090022;28;20481;-66
2023/08/05 00:12:28;;;;;;;40.38;24.70;;;26.90;99.90;;;;;;5089966;28;20024;-65
2023/08/05 00:14:55;;;;;;;52.17;31.15;;;27.00;99.90;;;;;;5089957;28;20025;-65
2023/08/05 00:17:21;;;;;;;40.20;25.65;;;27.10;99.90;;;;;;5089882;28;20028;-64
2023/08/05 00:19:48;;;;;;;46.25;25.52;;;27.10;99.90;;;;;;5089824;28;20209;-66
2023/08/05 00:22:14;;;;;;;39.97;25.02;;;27.20;99.90;;;;;;5090009;28;20044;-68
2023/08/05 00:24:40;;;;;;;44.92;28.05;;;27.20;99.90;;;;;;5089786;28;20056;-70
2023/08/05 00:27:07;;;;;;;50.97;36.72;;;27.30;99.90;;;;;;5089504;28;20040;-68
2023/08/05 00:29:34;;;;;;;63.97;44.85;;;27.30;99.90;;;;;;5089772;28;20020;-68
2023/08/05 00:32:00;;;;;;;44.60;30.70;;;27.40;99.90;;;;;;5089952;28;20016;-66
2023/08/05 00:34:27;;;;;;;62.10;38.35;;;27.40;99.90;;;;;;5089703;28;20030;-67
2023/08/05 00:36:53;;;;;;;56.97;32.17;;;27.40;99.90;;;;;;5089912;28;20016;-67
2023/08/05 00:39:20;;;;;;;43.10;28.45;;;27.40;99.90;;;;;;5077847;28;20016;-68
2023/08/05 00:41:46;;;;;;;68.90;35.80;;;27.40;99.90;;;;;;5075937;28;20048;-67
2023/08/05 00:44:13;;;;;;;87.35;43.90;;;27.50;99.90;;;;;;5076137;28;20095;-68
2023/08/05 00:46:39;;;;;;;54.10;28.52;;;27.50;99.90;;;;;;5076343;28;20020;-68
2023/08/05 00:49:06;;;;;;;39.58;24.67;;;27.50;99.90;;;;;;5076084;28;20024;-66
2023/08/05 00:51:32;;;;;;;43.08;26.58;;;27.50;99.90;;;;;;5076017;28;20024;-67
2023/08/05 00:53:59;;;;;;;40.30;26.27;;;27.60;99.90;;;;;;5076072;28;20100;-68
2023/08/05 00:56:25;;;;;;;51.03;29.02;;;27.60;99.90;;;;;;5076074;28;20385;-68
2023/08/05 00:58:52;;;;;;;43.08;28.05;;;27.50;99.90;;;;;;5075612;28;20419;-69
2023/08/05 01:01:18;;;;;;;45.83;27.38;;;27.60;99.90;;;;;;5076057;28;20408;-68
2023/08/05 01:03:45;;;;;;;62.88;40.50;;;27.70;99.90;;;;;;5075730;28;20021;-69
2023/08/05 01:06:12;;;;;;;57.67;34.40;;;27.70;99.90;;;;;;5075500;28;20610;-69
2023/08/05 01:08:40;;;;;;;60.63;38.97;;;27.70;99.90;;;;;;5075701;28;20033;-68
2023/08/05 01:11:07;;;;;;;155.75;103.20;;;27.70;99.90;;;;;;5076192;28;20017;-69
2023/08/05 01:13:34;;;;;;;54.53;37.22;;;27.80;99.90;;;;;;5075975;28;20021;-68
2023/08/05 01:16:01;;;;;;;57.42;31.52;;;27.90;99.90;;;;;;5075667;28;20066;-69
2023/08/05 01:18:29;;;;;;;46.10;28.25;;;28.00;99.90;;;;;;5075236;28;20036;-69
2023/08/05 01:20:57;;;;;;;45.42;27.20;;;28.00;99.90;;;;;;5075160;28;20108;-71
2023/08/05 01:23:30;;;;;;;43.22;26.58;;;28.00;99.90;;;;;;5075263;28;20523;-69
2023/08/05 01:25:57;;;;;;;46.08;24.30;;;28.10;99.90;;;;;;5074874;28;20029;-67
2023/08/05 01:28:24;;;;;;;64.57;48.50;;;28.20;99.90;;;;;;5075034;28;20503;-68
2023/08/05 01:30:53;;;;;;;38.95;22.17;;;28.30;99.90;;;;;;5075084;28;20017;-67
2023/08/05 01:33:20;;;;;;;56.47;32.88;;;28.30;99.90;;;;;;5074898;28;20021;-67
2023/08/05 01:35:49;;;;;;;42.30;24.52;;;28.40;99.90;;;;;;5075036;28;20071;-68
2023/08/05 01:38:15;;;;;;;37.67;22.85;;;28.40;99.90;;;;;;5075176;28;20021;-66
2023/08/05 01:40:42;;;;;;;35.58;21.73;;;28.50;99.90;;;;;;5074909;28;20042;-66
2023/08/05 01:43:09;;;;;;;37.15;24.52;;;28.60;99.90;;;;;;5066809;28;20425;-67
2023/08/05 01:45:35;;;;;;;47.17;26.20;;;28.70;99.90;;;;;;5054789;28;20013;-67
2023/08/05 01:48:02;;;;;;;40.53;23.08;;;28.70;99.90;;;;;;5054620;28;20021;-68
2023/08/05 01:50:28;;;;;;;35.75;21.25;;;28.80;99.90;;;;;;5053584;28;20033;-67
2023/08/05 01:52:55;;;;;;;38.25;23.45;;;28.80;99.90;;;;;;5054619;28;20389;-66
2023/08/05 01:55:22;;;;;;;37.50;25.42;;;28.90;99.90;;;;;;5054938;28;20430;-67
2023/08/05 01:57:48;;;;;;;37.08;25.17;;;28.90;99.90;;;;;;5053215;28;20033;-67
2023/08/05 02:00:15;;;;;;;35.60;22.98;;;29.00;99.90;;;;;;5054418;28;20440;-67
2023/08/05 02:02:41;;;;;;;32.55;20.58;;;29.10;99.90;;;;;;5054524;28;20052;-66
2023/08/05 02:05:09;;;;;;;28.08;20.05;;;29.20;99.90;;;;;;5054269;28;20029;-66
2023/08/05 02:07:35;;;;;;;30.90;21.63;;;29.30;99.90;;;;;;5054430;28;20115;-66
2023/08/05 02:10:02;;;;;;;37.55;21.77;;;29.40;99.90;;;;;;5054400;28;20063;-67
2023/08/05 02:12:29;;;;;;;36.78;22.52;;;29.40;99.90;;;;;;5054507;28;20111;-67
2023/08/05 02:14:55;;;;;;;29.45;21.30;;;29.50;99.90;;;;;;5054433;28;20025;-67
2023/08/05 02:17:22;;;;;;;109.60;74.03;;;29.50;99.90;;;;;;5054252;28;20025;-67
2023/08/05 02:19:48;;;;;;;62.13;40.92;;;29.50;99.90;;;;;;5054005;28;20033;-68
2023/08/05 02:22:15;;;;;;;126.90;88.47;;;29.50;99.90;;;;;;5054171;28;20038;-67
2023/08/05 02:24:41;;;;;;;230.55;149.02;;;29.60;99.90;;;;;;5054063;28;20033;-68
2023/08/05 02:27:08;;;;;;;70.15;49.35;;;29.70;99.90;;;;;;5053610;28;20048;-70
2023/08/05 02:29:34;;;;;;;126.88;80.03;;;29.70;99.90;;;;;;5054000;28;20377;-67
2023/08/05 02:32:02;;;;;;;51.35;32.92;;;29.80;99.90;;;;;;5053904;28;20392;-67
2023/08/05 02:34:28;;;;;;;44.08;27.63;;;29.90;99.90;;;;;;5053767;28;20051;-67
2023/08/05 02:36:55;;;;;;;42.13;25.60;;;29.90;99.90;;;;;;5053957;28;20032;-67
2023/08/05 02:39:21;;;;;;;44.70;28.42;;;29.90;99.90;;;;;;5053950;28;20044;-67
2023/08/05 02:41:48;;;;;;;53.78;31.80;;;30.00;99.90;;;;;;5053797;28;20116;-67
2023/08/05 02:44:14;;;;;;;44.45;25.80;;;30.10;99.90;;;;;;5053733;28;20037;-67
2023/08/05 02:46:41;;;;;;;340.73;298.15;;;30.20;99.90;;;;;;5053555;28;20415;-65
2023/08/05 02:49:08;;;;;;;1004.80;896.67;;;30.20;99.90;;;;;;5053608;28;20377;-65
2023/08/05 02:51:37;;;;;;;1226.47;999.90;;;30.20;99.90;;;;;;5053550;28;20021;-67
2023/08/05 02:54:04;;;;;;;1068.00;956.08;;;30.20;99.90;;;;;;5053856;28;20039;-67
2023/08/05 02:56:33;;;;;;;894.22;803.78;;;30.30;99.90;;;;;;5053298;28;20481;-68
2023/08/05 02:59:00;;;;;;;857.33;767.72;;;30.30;99.90;;;;;;5054169;28;20048;-66
2023/08/05 03:01:26;;;;;;;1371.53;999.90;;;30.40;99.90;;;;;;5053662;28;20032;-67
2023/08/05 03:03:53;;;;;;;899.45;807.80;;;30.40;99.90;;;;;;5053754;28;20029;-67
2023/08/05 03:06:19;;;;;;;870.83;782.20;;;30.40;99.90;;;;;;5053283;28;20500;-67
2023/08/05 03:08:46;;;;;;;1210.35;999.90;;;30.40;99.90;;;;;;5053285;28;20028;-67
2023/08/05 03:11:12;;;;;;;1373.32;999.90;;;30.40;99.90;;;;;;5053161;28;20017;-66
2023/08/05 03:13:39;;;;;;;967.20;870.35;;;30.40;99.90;;;;;;5053181;28;20389;-68
2023/08/05 03:16:14;;;;;;;1157.93;999.90;;;30.40;99.90;;;;;;5053586;28;20106;-68
2023/08/05 03:18:41;;;;;;;1365.60;999.90;;;30.40;99.90;;;;;;5052995;28;20508;-67
2023/08/05 03:21:07;;;;;;;1364.72;999.90;;;30.50;99.90;;;;;;5053284;28;20020;-67
2023/08/05 03:23:34;;;;;;;917.50;824.63;;;30.50;99.90;;;;;;5053067;28;20456;-67
2023/08/05 03:26:00;;;;;;;1550.57;999.90;;;30.60;99.90;;;;;;5052812;28;20025;-68
2023/08/05 03:28:26;;;;;;;1237.75;999.90;;;30.50;99.90;;;;;;5053451;28;20025;-67
2023/08/05 03:30:53;;;;;;;1363.03;999.90;;;30.60;99.90;;;;;;5053409;28;20104;-68
2023/08/05 03:33:19;;;;;;;1215.90;999.90;;;30.60;99.90;;;;;;5053025;28;20101;-67
2023/08/05 03:35:46;;;;;;;1110.13;996.72;;;30.60;99.90;;;;;;5053367;28;20082;-67
2023/08/05 03:38:13;;;;;;;1285.05;999.90;;;30.60;99.90;;;;;;5053182;28;20067;-67
2023/08/05 03:40:39;;;;;;;1199.68;999.90;;;30.70;99.90;;;;;;5052851;28;20029;-68
2023/08/05 03:43:06;;;;;;;954.70;853.38;;;30.80;99.90;;;;;;5052953;28;20417;-67
2023/08/05 03:45:32;;;;;;;770.08;688.47;;;30.80;99.90;;;;;;5052948;28;20025;-68
2023/08/05 03:47:58;;;;;;;422.98;378.48;;;30.90;99.90;;;;;;5052971;28;20083;-68
2023/08/05 03:50:28;;;;;;;410.02;366.05;;;31.10;99.90;;;;;;5053006;28;20386;-68
2023/08/05 03:52:55;;;;;;;573.97;509.77;;;31.10;99.90;;;;;;5053002;28;20027;-67
2023/08/05 03:55:22;;;;;;;1645.85;999.90;;;31.10;99.90;;;;;;5053173;28;20047;-67
2023/08/05 03:57:48;;;;;;;1475.85;999.90;;;31.10;99.90;;;;;;5052866;28;20028;-67
2023/08/05 04:00:16;;;;;;;1625.78;999.90;;;31.00;99.90;;;;;;5052807;28;20477;-67
2023/08/05 04:02:44;;;;;;;1626.72;999.90;;;30.90;99.90;;;;;;5052834;28;20048;-67
2023/08/05 04:05:10;;;;;;;1614.68;999.90;;;30.90;99.90;;;;;;5052799;28;20032;-68
2023/08/05 04:07:37;;;;;;;1598.40;999.90;;;31.00;99.90;;;;;;5052857;28;20021;-67
2023/08/05 04:10:05;;;;;;;1644.05;999.90;;;31.00;99.90;;;;;;5052919;28;20025;-67
2023/08/05 04:12:35;;;;;;;1622.55;999.90;;;30.90;99.90;;;;;;5052609;28;20056;-67
2023/08/05 04:15:03;;;;;;;1606.15;999.90;;;30.90;99.90;;;;;;5056423;28;20025;-67
2023/08/05 04:17:30;;;;;;;1575.20;999.90;;;31.10;99.90;;;;;;5056375;28;20107;-67
2023/08/05 04:19:56;;;;;;;1638.25;999.90;;;31.30;99.90;;;;;;5056416;28;20060;-67
2023/08/05 04:22:24;;;;;;;1626.72;999.90;;;31.40;99.90;;;;;;5056350;28;20029;-67
2023/08/05 04:24:51;;;;;;;1587.07;999.90;;;31.50;99.90;;;;;;5056327;28;20035;-68
2023/08/05 04:27:18;;;;;;;1622.13;999.90;;;31.60;99.90;;;;;;5056053;28;20048;-67
2023/08/05 04:29:45;;;;;;;1625.80;999.90;;;31.70;99.90;;;;;;5063621;28;20037;-67
2023/08/05 04:32:11;;;;;;;1660.53;999.90;;;31.70;99.90;;;;;;5064298;28;20051;-67
2023/08/05 04:34:38;;;;;;;1665.53;999.90;;;31.80;99.90;;;;;;5065788;28;20024;-66
2023/08/05 04:37:18;;;;;;;1630.47;999.90;;;31.70;99.90;;;;;;5066519;28;20053;-66
2023/08/05 04:39:45;;;;;;;1638.75;999.90;;;31.80;99.90;;;;;;5065756;28;20021;-66
2023/08/05 04:42:12;;;;;;;1662.97;999.90;;;31.80;99.90;;;;;;5064589;28;20052;-67
2023/08/05 04:44:40;;;;;;;1537.97;999.90;;;31.80;99.90;;;;;;5061340;28;20139;-67
2023/08/05 04:47:08;;;;;;;1649.13;999.90;;;31.70;99.90;;;;;;5064806;28;20496;-67
2023/08/05 04:49:35;;;;;;;1669.18;999.90;;;31.80;99.90;;;;;;5064356;28;20017;-66
2023/08/05 04:52:06;;;;;;;1562.32;999.90;;;31.80;99.90;;;;;;5064588;28;20096;-65
2023/08/05 04:54:45;;;;;;;1684.65;999.90;;;31.80;99.90;;;;;;5064430;28;20023;-66
2023/08/05 04:57:12;;;;;;;1660.18;999.90;;;31.80;99.90;;;;;;5064416;28;20024;-67
2023/08/05 04:59:39;;;;;;;1701.40;999.90;;;31.80;99.90;;;;;;5065074;28;20023;-67
2023/08/05 05:02:06;;;;;;;54.40;40.72;;;31.80;99.90;;;;;;5066321;28;20025;-68
2023/08/05 05:04:32;;;;;;;1187.07;999.45;;;31.90;99.90;;;;;;5064624;28;20029;-67
2023/08/05 05:06:59;;;;;;;1241.22;999.90;;;31.90;99.90;;;;;;5064943;28;20017;-66
2023/08/05 05:09:26;;;;;;;1603.97;999.90;;;32.10;99.90;;;;;;5066023;28;20021;-67
2023/08/05 05:11:54;;;;;;;1517.28;999.90;;;32.20;99.90;;;;;;5064330;28;20027;-66
2023/08/05 05:14:21;;;;;;;1585.60;999.90;;;32.20;99.90;;;;;;5064725;28;20017;-67
2023/08/05 05:16:48;;;;;;;1541.15;999.90;;;32.40;99.90;;;;;;5066023;28;20055;-67
2023/08/05 05:19:14;;;;;;;1192.97;866.08;;;32.40;99.90;;;;;;5064259;28;20025;-67
2023/08/05 05:21:40;;;;;;;41.28;25.75;;;32.40;99.90;;;;;;5064708;28;20021;-67
2023/08/05 05:24:07;;;;;;;31.08;22.58;;;32.30;99.90;;;;;;5065722;28;20086;-67
2023/08/05 05:26:33;;;;;;;38.17;24.48;;;32.30;99.90;;;;;;5069556;28;20040;-67
2023/08/05 05:29:00;;;;;;;51.25;32.55;;;32.20;99.90;;;;;;5075073;28;20427;-67
2023/08/05 05:31:26;;;;;;;44.95;31.83;;;32.20;99.90;;;;;;5074951;28;20377;-67
2023/08/05 05:33:53;;;;;;;46.00;30.38;;;32.10;99.90;;;;;;5074980;28;20021;-68
2023/08/05 05:36:19;;;;;;;58.22;38.08;;;32.20;99.90;;;;;;5074867;28;20554;-68
2023/08/05 05:38:46;;;;;;;37.88;28.85;;;32.20;99.90;;;;;;5074753;28;20027;-67
2023/08/05 05:41:12;;;;;;;42.05;27.45;;;32.30;99.90;;;;;;5074988;28;20070;-67
2023/08/05 05:43:39;;;;;;;42.75;27.67;;;32.40;99.90;;;;;;5074876;28;20028;-67
2023/08/05 05:46:05;;;;;;;40.60;25.25;;;32.40;99.90;;;;;;5074565;28;20377;-67
2023/08/05 05:48:32;;;;;;;47.00;28.20;;;32.30;99.90;;;;;;5074764;28;20023;-67
2023/08/05 05:50:58;;;;;;;45.55;30.27;;;32.30;99.90;;;;;;5068578;28;20032;-67
2023/08/05 05:53:25;;;;;;;218.75;132.68;;;32.30;99.90;;;;;;5064401;28;20021;-68
2023/08/05 05:55:53;;;;;;;97.72;62.80;;;32.20;99.90;;;;;;5064969;28;20018;-68
2023/08/05 05:58:20;;;;;;;185.07;111.40;;;32.20;99.90;;;;;;5063164;28;20063;-68
2023/08/05 06:00:46;;;;;;;53.30;36.08;;;32.20;99.90;;;;;;5064156;28;20024;-67
2023/08/05 06:03:13;;;;;;;50.42;33.97;;;32.40;99.90;;;;;;5064887;28;20391;-68
2023/08/05 06:05:40;;;;;;;98.18;61.60;;;32.50;99.90;;;;;;5062940;28;20017;-67
2023/08/05 06:08:07;;;;;;;41.30;27.85;;;32.50;99.90;;;;;;5063748;28;20024;-68
2023/08/05 06:10:40;;;;;;;37.50;28.10;;;32.70;99.90;;;;;;5064853;28;20075;-67
2023/08/05 06:13:07;;;;;;;40.45;28.52;;;32.80;99.90;;;;;;5063997;28;20044;-68
2023/08/05 06:15:33;;;;;;;42.28;27.65;;;32.90;99.90;;;;;;5062813;28;20048;-67
2023/08/05 06:18:00;;;;;;;33.45;22.00;;;33.00;99.90;;;;;;5067681;28;20131;-67
2023/08/05 06:20:26;;;;;;;42.33;23.80;;;33.00;99.90;;;;;;5074258;28;20024;-67
2023/08/05 06:22:53;;;;;;;35.40;22.83;;;33.10;99.90;;;;;;5073356;28;20035;-66
2023/08/05 06:25:19;;;;;;;1044.28;848.17;;;33.10;99.90;;;;;;5073767;28;20118;-66
2023/08/05 06:27:46;;;;;;;1324.15;999.90;;;33.00;99.90;;;;;;5073606;28;20056;-68
2023/08/05 06:30:12;;;;;;;692.60;621.53;;;32.90;99.90;;;;;;5073202;28;20119;-66
2023/08/05 06:32:39;;;;;;;545.67;487.30;;;33.00;99.90;;;;;;5073761;28;20067;-68
2023/08/05 06:35:06;;;;;;;752.88;675.47;;;33.00;99.90;;;;;;5073628;28;20055;-66
2023/08/05 06:37:32;;;;;;;717.75;643.47;;;33.10;99.90;;;;;;5073310;28;20520;-66
2023/08/05 06:39:59;;;;;;;1248.07;999.90;;;33.20;99.90;;;;;;5073572;28;20078;-66
2023/08/05 06:42:26;;;;;;;1552.60;999.90;;;33.30;99.90;;;;;;5073736;28;20598;-66
2023/08/05 06:44:54;;;;;;;1595.78;999.90;;;33.40;99.90;;;;;;5073949;28;20036;-67
2023/08/05 06:47:20;;;;;;;1629.90;999.90;;;33.40;99.90;;;;;;5073555;28;20031;-66
2023/08/05 06:49:47;;;;;;;1633.55;999.90;;;33.30;99.90;;;;;;5073671;28;20028;-66
2023/08/05 06:52:14;;;;;;;1622.97;999.90;;;33.20;99.90;;;;;;5073292;28;20478;-66
2023/08/05 06:54:40;;;;;;;1613.75;999.90;;;33.20;99.90;;;;;;5073463;28;20020;-67
2023/08/05 06:57:07;;;;;;;1597.93;999.90;;;33.30;99.90;;;;;;5073765;28;20027;-68
2023/08/05 06:59:33;;;;;;;1619.63;999.90;;;33.40;99.90;;;;;;5073448;28;20032;-66
2023/08/05 07:02:01;;;;;;;1366.50;999.90;;;33.40;99.90;;;;;;5073631;28;20031;-66
2023/08/05 07:04:27;;;;;;;646.50;444.80;;;33.40;99.90;;;;;;5073435;28;20032;-67
2023/08/05 07:06:54;;;;;;;59.17;29.63;;;33.30;99.90;;;;;;5073372;28;20025;-66
2023/08/05 07:09:20;;;;;;;28.05;17.45;;;33.20;99.90;;;;;;5073405;28;20024;-66
2023/08/05 07:11:46;;;;;;;33.97;20.05;;;33.10;99.90;;;;;;5073390;28;20021;-66
2023/08/05 07:14:13;;;;;;;24.27;18.35;;;33.30;99.90;;;;;;5073355;28;20028;-66
2023/08/05 07:16:39;;;;;;;27.00;17.83;;;33.40;99.90;;;;;;5073102;28;20079;-66
2023/08/05 07:19:06;;;;;;;890.35;693.88;;;33.60;99.90;;;;;;5073374;28;20028;-67
2023/08/05 07:21:32;;;;;;;1224.47;999.90;;;33.60;99.90;;;;;;5073124;28;20122;-66
2023/08/05 07:23:59;;;;;;;1078.78;963.33;;;33.80;99.90;;;;;;5072829;28;20056;-66
2023/08/05 07:26:25;;;;;;;1620.30;999.90;;;33.80;99.90;;;;;;5073223;28;20078;-66
2023/08/05 07:28:52;;;;;;;1288.47;999.90;;;33.90;99.90;;;;;;5073142;28;20025;-66
2023/08/05 07:31:19;;;;;;;1009.08;845.20;;;33.90;99.90;;;;;;5072980;28;20032;-66
2023/08/05 07:33:46;;;;;;;1590.65;999.90;;;33.80;99.90;;;;;;5073155;28;20021;-66
2023/08/05 07:36:16;;;;;;;1571.40;999.90;;;33.70;99.90;;;;;;5073142;28;20021;-65
2023/08/05 07:38:45;;;;;;;1547.88;999.90;;;33.60;99.90;;;;;;5072950;28;20051;-66
2023/08/05 07:41:15;;;;;;;1571.35;999.90;;;33.60;99.90;;;;;;5072994;28;20016;-68
2023/08/05 07:43:43;;;;;;;1638.85;999.90;;;33.60;99.90;;;;;;5073046;28;20046;-67
2023/08/05 07:46:13;;;;;;;1548.93;999.90;;;33.40;99.90;;;;;;5072962;28;20032;-66
2023/08/05 07:48:40;;;;;;;1511.60;999.90;;;33.30;99.90;;;;;;5074546;28;20067;-66
2023/08/05 07:51:07;;;;;;;713.70;637.53;;;33.30;99.90;;;;;;5076937;28;20448;-66
2023/08/05 07:53:36;;;;;;;776.13;695.13;;;33.30;99.90;;;;;;5077676;28;20035;-66
2023/08/05 07:56:22;;;;;;;1470.70;999.90;;;33.40;99.90;;;;;;5076849;28;20031;-67
2023/08/05 07:58:49;;;;;;;1330.22;999.90;;;33.30;99.90;;;;;;5075675;28;20071;-67
2023/08/05 08:01:19;;;;;;;1616.40;999.90;;;33.20;99.90;;;;;;5074075;28;20455;-66
2023/08/05 08:03:48;;;;;;;1355.97;999.90;;;33.10;99.90;;;;;;5074141;28;20059;-66
2023/08/05 08:06:16;;;;;;;993.55;889.60;;;33.20;99.90;;;;;;5068303;28;20493;-67
2023/08/05 08:08:43;;;;;;;728.47;646.17;;;33.30;99.90;;;;;;5065992;28;20036;-67
2023/08/05 08:11:10;;;;;;;454.40;407.20;;;33.40;99.90;;;;;;5057809;28;20420;-68
2023/08/05 08:13:37;;;;;;;270.10;242.68;;;33.50;99.90;;;;;;5057128;28;20107;-68
2023/08/05 08:16:04;;;;;;;167.63;151.50;;;33.40;99.90;;;;;;5057171;28;20111;-67
2023/08/05 08:18:31;;;;;;;147.57;129.25;;;33.50;99.90;;;;;;5056746;28;20147;-67
2023/08/05 08:20:57;;;;;;;66.38;44.05;;;33.50;99.90;;;;;;5056663;28;20025;-67
2023/08/05 08:23:24;;;;;;;45.67;26.67;;;33.50;99.90;;;;;;5056345;28;20032;-67
2023/08/05 08:25:51;;;;;;;367.60;266.52;;;33.50;99.90;;;;;;5056299;28;20100;-67
2023/08/05 08:28:17;;;;;;;1581.13;999.90;;;33.40;99.90;;;;;;5056330;28;20025;-66
2023/08/05 08:30:54;;;;;;;1561.20;999.90;;;33.30;99.90;;;;;;5056348;28;20058;-67
2023/08/05 08:33:22;;;;;;;1554.13;999.90;;;33.20;99.90;;;;;;5056446;28;20021;-68
2023/08/05 08:35:49;;;;;;;1599.50;999.90;;;33.10;99.90;;;;;;5056173;28;20021;-67
2023/08/05 08:38:18;;;;;;;1635.03;999.90;;;33.00;99.90;;;;;;5056203;28;20025;-68
2023/08/05 08:40:47;;;;;;;1047.93;853.67;;;33.00;99.90;;;;;;5056039;28;20489;-67
2023/08/05 08:43:20;;;;;;;382.10;305.95;;;33.10;99.90;;;;;;5056038;28;20362;-67
2023/08/05 08:45:50;;;;;;;39.55;23.38;;;33.20;99.90;;;;;;5056065;28;20025;-67
2023/08/05 08:48:17;;;;;;;34.80;22.25;;;33.20;99.90;;;;;;5055913;28;20025;-68
2023/08/05 08:50:45;;;;;;;41.33;22.50;;;33.20;99.90;;;;;;5055890;28;20484;-67
2023/08/05 08:53:14;;;;;;;32.53;20.55;;;33.20;99.90;;;;;;5056094;28;20029;-68
2023/08/05 08:55:42;;;;;;;35.00;24.00;;;33.20;99.90;;;;;;5055862;28;20654;-68
2023/08/05 08:58:09;;;;;;;368.98;286.70;;;33.20;99.90;;;;;;5055770;28;20043;-67
2023/08/05 09:00:37;;;;;;;278.73;196.95;;;33.20;99.90;;;;;;5055217;28;20164;-67
2023/08/05 09:03:05;;;;;;;339.38;262.52;;;33.20;99.90;;;;;;5055985;28;20036;-67
2023/08/05 09:05:54;;;;;;;39.38;24.55;;;33.30;99.90;;;;;;5055685;28;20029;-67
2023/08/05 09:08:21;;;;;;;36.38;27.02;;;33.30;99.90;;;;;;5053271;28;20049;-68
2023/08/05 09:10:48;;;;;;;28.75;19.80;;;33.20;99.90;;;;;;5053621;28;20095;-68
2023/08/05 09:13:17;;;;;;;1216.47;999.90;;;33.20;99.90;;;;;;5053340;28;20041;-67
2023/08/05 09:15:44;;;;;;;193.18;143.95;;;33.20;99.90;;;;;;5053409;28;20033;-68
2023/08/05 09:21:02;;;;;;;522.97;386.27;;;33.20;99.90;;;;;;5033454;28;20458;-67
2023/08/05 09:23:28;;;;;;;496.42;379.60;;;33.20;99.90;;;;;;5033224;28;20435;-68
2023/08/05 09:25:55;;;;;;;1536.85;999.90;;;33.20;99.90;;;;;;5032773;28;20026;-67
2023/08/05 09:28:32;;;;;;;1376.63;999.90;;;33.20;99.90;;;;;;5033175;28;20393;-67
2023/08/05 09:31:18;;;;;;;24.05;17.27;;;33.20;99.90;;;;;;5033102;28;20030;-68
2023/08/05 09:33:45;;;;;;;1071.57;779.55;;;33.20;99.90;;;;;;5032574;28;20060;-67
2023/08/05 09:36:14;;;;;;;1469.85;999.90;;;33.20;99.90;;;;;;5032437;28;20022;-67
2023/08/05 09:38:44;;;;;;;471.95;388.08;;;33.20;99.90;;;;;;5032843;28;20137;-67
2023/08/05 09:41:11;;;;;;;39.50;24.33;;;33.10;99.90;;;;;;5032970;28;20108;-67
2023/08/05 09:43:43;;;;;;;34.40;20.90;;;33.10;99.90;;;;;;5032920;28;20032;-67
2023/08/05 09:46:11;;;;;;;90.90;60.35;;;33.10;99.90;;;;;;5032792;28;20072;-67
2023/08/05 09:48:43;;;;;;;34.88;18.45;;;33.10;99.90;;;;;;5032835;28;20104;-67
2023/08/05 09:51:18;;;;;;;42.40;21.83;;;33.00;99.90;;;;;;5032678;28;20077;-67
2023/08/05 09:53:51;;;;;;;58.75;34.75;;;33.00;99.90;;;;;;5032775;28;20470;-68
2023/08/05 09:56:20;;;;;;;53.30;35.22;;;33.00;99.90;;;;;;5032730;28;20034;-67
2023/08/05 09:58:50;;;;;;;62.35;32.45;;;32.90;99.90;;;;;;5050227;28;20041;-69
2023/08/05 10:01:19;;;;;;;161.02;117.40;;;32.80;99.90;;;;;;5054718;28;20021;-69
2023/08/05 10:03:48;;;;;;;116.57;84.65;;;32.80;99.90;;;;;;5054543;28;20029;-69
2023/08/05 10:06:16;;;;;;;302.02;251.82;;;32.80;99.90;;;;;;5054353;28;20032;-69
2023/08/05 10:08:46;;;;;;;162.13;114.05;;;32.80;99.90;;;;;;5054467;28;20017;-68
2023/08/05 10:11:15;;;;;;;1166.43;958.67;;;32.80;99.90;;;;;;5053527;28;20021;-70
2023/08/05 10:13:44;;;;;;;799.92;716.03;;;32.80;99.90;;;;;;5054381;28;20096;-70
2023/08/05 10:16:12;;;;;;;240.23;188.90;;;32.70;99.90;;;;;;5054355;28;20377;-70
2023/08/05 10:18:40;;;;;;;38.08;25.02;;;32.70;99.90;;;;;;5054105;28;20029;-67
2023/08/05 10:21:09;;;;;;;56.08;35.22;;;32.60;99.90;;;;;;5054199;28;20025;-67
2023/08/05 10:23:36;;;;;;;279.45;214.30;;;32.60;99.90;;;;;;5052580;28;20021;-68
2023/08/05 10:26:06;;;;;;;36.97;23.25;;;32.60;99.90;;;;;;5063488;28;20027;-68
2023/08/05 10:28:34;;;;;;;50.15;34.42;;;32.50;99.90;;;;;;5058715;28;20037;-68
2023/08/05 10:31:05;;;;;;;44.63;26.40;;;32.50;99.90;;;;;;5058016;28;20507;-65
2023/08/05 10:33:31;;;;;;;60.10;34.47;;;32.50;99.90;;;;;;5069997;28;20172;-67
2023/08/05 10:36:07;;;;;;;55.60;33.55;;;32.60;99.90;;;;;;5063106;28;20020;-67
2023/08/05 10:38:44;;;;;;;66.25;39.35;;;32.60;99.90;;;;;;5061056;28;20033;-68
2023/08/05 10:41:14;;;;;;;43.58;27.52;;;32.50;99.90;;;;;;5065189;28;20480;-69
2023/08/05 10:43:41;;;;;;;51.05;27.65;;;32.50;99.90;;;;;;5063690;28;20166;-67
2023/08/05 10:46:08;;;;;;;50.90;31.20;;;32.40;99.90;;;;;;5058893;28;20025;-70
2023/08/05 10:48:38;;;;;;;43.13;24.70;;;32.30;99.90;;;;;;5065372;28;20036;-68
2023/08/05 10:51:18;;;;;;;36.90;24.15;;;32.30;99.90;;;;;;5061558;28;20021;-69
2023/08/05 10:53:54;;;;;;;54.30;32.75;;;32.30;99.90;;;;;;5058466;28;20143;-70
2023/08/05 10:56:30;;;;;;;40.85;25.15;;;32.30;99.90;;;;;;5062133;28;20026;-68
2023/08/05 10:58:58;;;;;;;49.97;31.67;;;32.20;99.90;;;;;;5061975;28;20013;-69
2023/08/05 11:01:55;;;;;;;52.47;29.58;;;32.20;99.90;;;;;;5062908;28;20055;-67
2023/08/05 11:04:31;;;;;;;56.70;28.60;;;32.00;99.90;;;;;;5056019;28;20075;-70
2023/08/05 11:07:03;;;;;;;44.75;27.60;;;32.00;99.90;;;;;;5052780;28;20025;-67
2023/08/05 11:09:40;;;;;;;41.07;25.50;;;32.00;99.90;;;;;;5053187;28;20358;-67
2023/08/05 11:12:07;;;;;;;40.13;24.33;;;32.00;99.90;;;;;;5052732;28;20329;-68
2023/08/05 11:14:37;;;;;;;39.13;22.90;;;31.90;99.90;;;;;;5052220;28;20488;-67
2023/08/05 11:17:06;;;;;;;38.47;21.15;;;31.90;99.90;;;;;;5052826;28;20067;-68
2023/08/05 11:19:55;;;;;;;32.35;19.65;;;31.90;99.90;;;;;;5052979;28;20033;-66
2023/08/05 11:22:26;;;;;;;43.25;21.80;;;31.80;99.90;;;;;;5052913;28;20033;-67
2023/08/05 11:25:06;;;;;;;57.78;41.58;;;31.80;99.90;;;;;;5052854;28;20029;-66
2023/08/05 11:27:35;;;;;;;58.88;35.60;;;31.70;99.90;;;;;;5052628;28;20505;-66
2023/08/05 11:30:13;;;;;;;49.83;29.63;;;31.70;99.90;;;;;;5052928;28;20428;-66
2023/08/05 11:32:55;;;;;;;44.17;25.20;;;31.70;99.90;;;;;;5052999;28;20056;-69
2023/08/05 11:35:22;;;;;;;61.50;35.42;;;31.70;99.90;;;;;;5063771;28;20021;-71
2023/08/05 11:37:49;;;;;;;45.35;23.45;;;31.60;99.90;;;;;;5053005;28;20499;-71
2023/08/05 11:40:15;;;;;;;44.83;26.50;;;31.60;99.90;;;;;;5052898;28;20488;-72
2023/08/05 11:42:43;;;;;;;50.95;27.40;;;31.60;99.90;;;;;;5052852;28;20032;-74
2023/08/05 11:45:13;;;;;;;52.55;26.20;;;31.60;99.90;;;;;;5052802;28;20029;-71
2023/08/05 11:47:40;;;;;;;56.53;36.75;;;31.60;99.90;;;;;;5053020;28;20036;-72
2023/08/05 11:50:09;;;;;;;57.60;39.60;;;31.50;99.90;;;;;;5052682;28;20095;-72
2023/08/05 11:52:36;;;;;;;73.05;44.58;;;31.50;99.90;;;;;;5052908;28;20032;-72
2023/08/05 11:55:05;;;;;;;72.07;47.83;;;31.50;99.90;;;;;;5052833;28;20549;-72
2023/08/05 11:57:32;;;;;;;83.00;50.70;;;31.50;99.90;;;;;;5071243;28;20024;-73
2023/08/05 12:00:08;;;;;;;58.40;40.05;;;31.50;99.90;;;;;;5072885;28;20035;-72
2023/08/05 12:02:35;;;;;;;39.25;24.90;;;31.40;99.90;;;;;;5072773;28;20408;-72
2023/08/05 12:05:03;;;;;;;41.88;22.23;;;31.40;99.90;;;;;;5072626;28;20044;-73
2023/08/05 12:07:30;;;;;;;58.00;40.03;;;31.30;99.90;;;;;;5072637;28;20025;-72
2023/08/05 12:10:10;;;;;;;42.15;24.17;;;31.20;99.90;;;;;;5072779;28;20029;-72
2023/08/05 12:12:38;;;;;;;53.90;35.47;;;31.30;99.90;;;;;;5072539;28;20013;-72
2023/08/05 12:15:19;;;;;;;33.53;22.05;;;31.10;99.90;;;;;;5072724;28;20107;-72
2023/08/05 12:17:48;;;;;;;44.90;30.38;;;31.10;99.90;;;;;;5072472;28;20379;-71
2023/08/05 12:20:19;;;;;;;44.75;22.48;;;31.10;99.90;;;;;;5072902;28;20028;-73
2023/08/05 12:22:47;;;;;;;525.35;452.13;;;31.00;99.90;;;;;;5072840;28;20424;-72